Time;durP1;ratioP1;P1;durP2;ratioP2;P2;SDS_P1;SDS_P2;PMS_P1;PMS_P2;Temp;Humidity;BMP_temperature;BMP_pressure;BME280_temperature;BME280_humidity;BME280_pressure;Samples;Min_cycle;Max_cycle;Signal;HPM_P1;HPM_P2
2022/07/08 00:00:45;;;;;;;0.50;0.50;;;;;;;33.54;23.73;98391.53;5094559;28;20132;-78
2022/07/08 00:03:12;;;;;;;1.52;0.65;;;;;;;33.66;23.57;98383.94;5094303;28;20024;-78
2022/07/08 00:05:39;;;;;;;3.80;0.55;;;;;;;33.62;23.77;98395.56;5092085;28;20447;-78
2022/07/08 00:08:05;;;;;;;0.60;0.50;;;;;;;33.60;24.01;98400.97;5094226;28;20035;-78
2022/07/08 00:10:32;;;;;;;3.22;0.50;;;;;;;33.61;23.93;98396.06;5093948;28;20039;-78
2022/07/08 00:12:58;;;;;;;0.55;0.55;;;;;;;33.61;23.81;98398.91;5094158;28;20036;-78
2022/07/08 00:15:24;;;;;;;0.55;0.55;;;;;;;33.56;24.13;98393.91;5093955;28;20516;-78
2022/07/08 00:17:50;;;;;;;0.88;0.70;;;;;;;33.54;23.97;98397.22;5094047;28;20086;-78
2022/07/08 00:20:16;;;;;;;0.40;0.40;;;;;;;33.48;23.75;98396.31;5094370;28;20020;-78
2022/07/08 00:22:43;;;;;;;0.50;0.50;;;;;;;33.44;23.89;98392.91;5080179;28;20029;-78
2022/07/08 00:25:09;;;;;;;0.45;0.40;;;;;;;33.53;23.89;98394.88;5073448;28;20031;-78
2022/07/08 00:27:35;;;;;;;1.30;0.60;;;;;;;33.61;23.94;98398.91;5073973;28;20040;-78
2022/07/08 00:30:01;;;;;;;0.50;0.50;;;;;;;33.32;24.42;98396.81;5073772;28;20027;-77
2022/07/08 00:32:27;;;;;;;1.10;0.82;;;;;;;33.21;24.41;98394.53;5080060;28;20047;-78
2022/07/08 00:34:53;;;;;;;0.50;0.50;;;;;;;33.37;23.37;98394.03;5078932;28;20057;-78
2022/07/08 00:37:19;;;;;;;0.50;0.50;;;;;;;33.15;24.41;98396.50;5073396;28;20028;-77
2022/07/08 00:39:45;;;;;;;1.33;0.50;;;;;;;33.05;23.91;98399.94;5086342;28;20032;-78
2022/07/08 00:42:12;;;;;;;0.73;0.60;;;;;;;32.78;24.72;98400.91;5078838;28;20033;-78
2022/07/08 00:44:38;;;;;;;1.95;0.70;;;;;;;32.64;24.62;98402.44;5073378;28;20028;-78
2022/07/08 00:47:04;;;;;;;0.40;0.40;;;;;;;32.47;24.96;98401.25;5073329;28;20082;-77
2022/07/08 00:49:30;;;;;;;0.52;0.52;;;;;;;32.59;24.95;98405.16;5073312;28;20048;-78
2022/07/08 00:51:57;;;;;;;0.40;0.40;;;;;;;32.92;24.75;98405.06;5073294;28;20047;-77
2022/07/08 00:54:24;;;;;;;0.55;0.52;;;;;;;32.75;24.68;98402.66;5073216;28;20086;-77
2022/07/08 00:56:50;;;;;;;0.50;0.50;;;;;;;32.85;24.83;98400.53;5081290;28;20043;-77
2022/07/08 00:59:16;;;;;;;0.82;0.63;;;;;;;33.06;24.38;98399.44;5092667;28;20094;-77
2022/07/08 01:01:43;;;;;;;0.50;0.50;;;;;;;33.23;23.94;98394.84;5093406;28;20165;-77
2022/07/08 01:04:09;;;;;;;0.95;0.95;;;;;;;33.08;24.02;98394.03;5093303;28;20399;-78
2022/07/08 01:06:35;;;;;;;2.08;0.50;;;;;;;32.68;24.48;98388.81;5093278;28;20502;-77
2022/07/08 01:09:02;;;;;;;0.50;0.50;;;;;;;32.45;24.83;98400.16;5093040;28;20106;-78
2022/07/08 01:11:28;;;;;;;0.82;0.50;;;;;;;32.34;25.49;98400.72;5093279;28;20111;-78
2022/07/08 01:13:55;;;;;;;0.50;0.50;;;;;;;32.16;25.31;98409.34;5091485;28;20028;-77
2022/07/08 01:16:21;;;;;;;1.77;0.55;;;;;;;32.31;25.68;98403.72;5093343;28;20107;-77
2022/07/08 01:18:47;;;;;;;0.50;0.50;;;;;;;32.55;24.83;98416.72;5093312;28;20024;-77
2022/07/08 01:21:13;;;;;;;1.55;0.50;;;;;;;32.90;24.77;98399.06;5093124;28;20526;-78
2022/07/08 01:23:39;;;;;;;0.60;0.60;;;;;;;33.04;24.52;98410.53;5093002;28;20024;-78
2022/07/08 01:26:10;;;;;;;0.40;0.40;;;;;;;33.07;24.31;98403.06;5085030;28;20392;-78
2022/07/08 01:28:37;;;;;;;1.30;0.50;;;;;;;33.01;24.35;98410.66;5077043;28;20032;-78
2022/07/08 01:31:04;;;;;;;0.57;0.57;;;;;;;32.95;24.34;98407.72;5074019;28;20044;-78
2022/07/08 01:33:30;;;;;;;0.50;0.50;;;;;;;32.79;24.78;98405.34;5073016;28;20071;-78
2022/07/08 01:35:56;;;;;;;0.70;0.50;;;;;;;32.47;25.45;98411.84;5072823;28;20025;-78
2022/07/08 01:38:23;;;;;;;0.70;0.52;;;;;;;32.15;25.73;98407.00;5072571;28;20119;-77
2022/07/08 01:40:49;;;;;;;0.47;0.47;;;;;;;32.04;25.64;98407.53;5072737;28;20083;-77
2022/07/08 01:43:15;;;;;;;0.50;0.43;;;;;;;32.20;25.47;98412.81;5072808;28;20037;-77
2022/07/08 01:45:41;;;;;;;0.50;0.50;;;;;;;32.35;25.69;98419.34;5072710;28;20033;-78
2022/07/08 01:48:07;;;;;;;0.70;0.40;;;;;;;32.60;25.15;98415.28;5073850;28;20036;-77
2022/07/08 01:50:33;;;;;;;0.40;0.40;;;;;;;32.95;24.49;98416.25;5072768;28;20043;-77
2022/07/08 01:53:00;;;;;;;1.75;0.40;;;;;;;33.13;24.61;98413.28;5072467;28;20488;-78
2022/07/08 01:55:26;;;;;;;2.20;0.50;;;;;;;32.95;24.90;98410.56;5072217;28;20521;-78
2022/07/08 01:57:52;;;;;;;0.52;0.50;;;;;;;32.97;24.33;98410.06;5072868;28;20041;-78
2022/07/08 02:00:19;;;;;;;1.05;0.63;;;;;;;33.13;24.28;98413.28;5072576;28;20072;-77
2022/07/08 02:02:47;;;;;;;0.40;0.40;;;;;;;33.35;24.16;98413.69;5072601;28;20040;-77
2022/07/08 02:05:13;;;;;;;0.50;0.50;;;;;;;33.39;23.91;98416.34;5073607;28;20120;-77
2022/07/08 02:07:40;;;;;;;1.02;0.50;;;;;;;33.35;24.15;98422.22;5072615;28;20043;-77
2022/07/08 02:10:07;;;;;;;0.85;0.77;;;;;;;33.10;24.24;98424.84;5072423;28;20495;-77
2022/07/08 02:12:34;;;;;;;2.13;0.70;;;;;;;32.87;24.89;98429.28;5075100;28;20040;-78
2022/07/08 02:15:03;;;;;;;0.43;0.43;;;;;;;32.69;25.12;98435.13;5076331;28;20098;-78
2022/07/08 02:17:31;;;;;;;1.40;0.50;;;;;;;32.78;24.85;98429.34;5075955;28;20119;-77
2022/07/08 02:19:58;;;;;;;0.60;0.50;;;;;;;32.61;24.93;98433.91;5091727;28;20024;-77
2022/07/08 02:22:24;;;;;;;0.50;0.50;;;;;;;32.55;25.55;98435.84;5076751;28;20051;-78
2022/07/08 02:24:50;;;;;;;0.88;0.88;;;;;;;32.67;25.15;98438.44;5076111;28;20070;-77
2022/07/08 02:27:17;;;;;;;1.98;0.60;;;;;;;32.69;25.43;98441.59;5076254;28;20036;-77
2022/07/08 02:29:43;;;;;;;0.88;0.73;;;;;;;32.78;25.56;98439.94;5070055;28;20024;-77
2022/07/08 02:32:10;;;;;;;2.83;0.90;;;;;;;32.92;24.84;98447.72;5057782;28;20380;-77
2022/07/08 02:34:36;;;;;;;4.63;0.82;;;;;;;33.00;24.84;98446.88;5075763;28;20037;-77
2022/07/08 02:37:03;;;;;;;2.03;0.90;;;;;;;33.00;25.00;98451.78;5074437;28;20036;-77
2022/07/08 02:39:29;;;;;;;2.40;1.08;;;;;;;32.88;25.26;98453.63;5081203;28;20060;-77
2022/07/08 02:41:55;;;;;;;1.40;0.93;;;;;;;32.67;25.58;98454.72;5075670;28;20060;-77
2022/07/08 02:44:21;;;;;;;0.80;0.80;;;;;;;32.42;26.01;98461.63;5057777;28;20149;-78
2022/07/08 02:46:48;;;;;;;1.05;0.90;;;;;;;32.48;25.88;98458.91;5075566;28;20033;-78
2022/07/08 02:49:14;;;;;;;1.23;0.90;;;;;;;32.48;25.82;98458.91;5075467;28;20032;-77
2022/07/08 02:51:40;;;;;;;1.92;1.00;;;;;;;32.46;25.70;98464.31;5075257;28;20069;-78
2022/07/08 02:54:07;;;;;;;0.80;0.80;;;;;;;32.36;25.92;98462.75;5075737;28;20086;-78
2022/07/08 02:56:34;;;;;;;0.80;0.80;;;;;;;31.78;26.78;98472.44;5109546;27;20218;-77
2022/07/08 02:59:04;;;;;;;1.55;1.10;;;;;;;31.73;26.73;98472.31;5095549;28;20403;-77
2022/07/08 03:01:31;;;;;;;1.40;1.30;;;;;;;31.73;26.94;98469.47;5095545;28;20032;-77
2022/07/08 03:03:57;;;;;;;2.60;1.98;;;;;;;31.67;27.04;98474.22;5095264;28;20596;-77
2022/07/08 03:06:23;;;;;;;1.73;1.00;;;;;;;31.47;27.62;98474.72;5095471;28;20032;-77
2022/07/08 03:08:49;;;;;;;2.55;1.08;;;;;;;31.30;27.45;98476.28;5095685;28;20060;-77
2022/07/08 03:11:15;;;;;;;1.25;1.15;;;;;;;31.55;27.21;98473.16;5094245;28;20039;-78
2022/07/08 03:13:42;;;;;;;1.20;1.10;;;;;;;31.54;27.42;98482.13;5094627;28;20028;-78
2022/07/08 03:16:08;;;;;;;3.90;1.95;;;;;;;31.92;27.05;98488.81;5095628;28;20169;-77
2022/07/08 03:18:35;;;;;;;2.75;1.35;;;;;;;32.00;26.52;98486.44;5094940;28;20389;-77
2022/07/08 03:21:07;;;;;;;1.27;1.17;;;;;;;31.86;26.82;98484.25;5095146;28;20032;-77
2022/07/08 03:23:33;;;;;;;1.90;1.40;;;;;;;31.89;26.77;98489.78;5094827;28;20475;-77
2022/07/08 03:26:00;;;;;;;1.50;1.00;;;;;;;31.89;26.95;98495.44;5094959;28;20024;-77
2022/07/08 03:28:26;;;;;;;3.15;1.10;;;;;;;31.92;27.00;98500.19;5092024;28;20032;-77
2022/07/08 03:30:52;;;;;;;1.90;1.00;;;;;;;31.97;26.73;98501.63;5074820;28;20361;-78
2022/07/08 03:33:18;;;;;;;3.10;1.30;;;;;;;31.62;26.88;98504.03;5086829;28;20114;-77
2022/07/08 03:35:44;;;;;;;2.45;1.73;;;;;;;31.60;27.17;98503.72;5074509;28;20032;-77
2022/07/08 03:38:11;;;;;;;1.58;1.48;;;;;;;31.51;27.63;98503.72;5088285;28;20153;-77
2022/07/08 03:43:22;;;;;;;3.20;1.25;;;;;;;31.99;26.59;98507.59;5094770;28;20097;-77
2022/07/08 03:45:48;;;;;;;3.58;1.25;;;;;;;32.29;26.63;98505.75;5092978;28;20024;-77
2022/07/08 03:48:14;;;;;;;1.20;1.10;;;;;;;32.35;26.13;98501.78;5094447;28;20032;-77
2022/07/08 03:50:40;;;;;;;1.15;1.05;;;;;;;32.47;26.38;98508.50;5094576;28;20106;-77
2022/07/08 03:53:06;;;;;;;2.45;1.30;;;;;;;32.60;26.07;98518.41;5094466;28;20036;-78
2022/07/08 03:55:32;;;;;;;0.80;0.80;;;;;;;32.78;25.45;98523.22;5081136;28;20127;-78
2022/07/08 03:57:58;;;;;;;1.50;0.80;;;;;;;33.01;25.26;98533.03;5073879;28;20040;-78
2022/07/08 04:00:25;;;;;;;1.38;0.90;;;;;;;33.06;25.44;98532.38;5089681;28;20120;-77
2022/07/08 04:02:51;;;;;;;1.70;0.90;;;;;;;32.85;25.36;98537.09;5074907;28;20406;-78
2022/07/08 04:05:17;;;;;;;1.05;0.90;;;;;;;32.85;25.82;98528.53;5074384;28;20373;-77
2022/07/08 04:07:43;;;;;;;1.08;0.80;;;;;;;32.65;25.67;98531.22;5073944;28;20036;-77
2022/07/08 04:10:10;;;;;;;1.77;0.80;;;;;;;32.68;25.61;98536.69;5074236;28;20131;-78
2022/07/08 04:12:36;;;;;;;2.88;0.90;;;;;;;32.47;25.99;98534.09;5073873;28;20103;-77
2022/07/08 04:15:02;;;;;;;2.95;1.10;;;;;;;32.34;26.19;98540.00;5073717;28;20097;-77
2022/07/08 04:17:28;;;;;;;1.10;1.00;;;;;;;32.47;26.19;98537.72;5073820;28;20028;-77
2022/07/08 04:19:55;;;;;;;1.00;0.85;;;;;;;32.66;26.04;98538.44;5080169;28;20035;-77
2022/07/08 04:22:21;;;;;;;1.73;0.93;;;;;;;32.81;25.69;98532.84;5094146;28;20116;-77
2022/07/08 04:24:47;;;;;;;3.00;1.05;;;;;;;32.91;25.32;98542.91;5094134;28;20028;-78
2022/07/08 04:27:13;;;;;;;1.48;0.95;;;;;;;32.74;25.57;98542.53;5093979;28;20036;-77
2022/07/08 04:29:39;;;;;;;2.83;0.93;;;;;;;32.99;25.73;98544.91;5093849;28;20032;-78
2022/07/08 04:32:05;;;;;;;1.83;0.80;;;;;;;33.20;25.49;98551.56;5093545;28;20045;-77
2022/07/08 04:34:31;;;;;;;1.65;0.90;;;;;;;33.17;25.50;98546.84;5074627;28;20027;-77
2022/07/08 04:36:57;;;;;;;1.08;0.98;;;;;;;33.00;25.68;98551.38;5079245;28;20031;-77
2022/07/08 04:39:25;;;;;;;0.73;0.73;;;;;;;32.91;25.56;98552.19;5073358;28;20036;-77
2022/07/08 04:41:51;;;;;;;2.42;0.98;;;;;;;32.81;25.70;98547.84;5073404;28;20481;-77
2022/07/08 04:44:17;;;;;;;0.85;0.85;;;;;;;32.78;26.11;98551.66;5073378;28;20036;-77
2022/07/08 04:46:43;;;;;;;1.15;0.70;;;;;;;32.80;25.59;98554.00;5073103;28;20035;-77
2022/07/08 04:49:10;;;;;;;0.80;0.80;;;;;;;32.98;25.85;98554.69;5073279;28;20024;-77
2022/07/08 04:51:36;;;;;;;2.78;0.90;;;;;;;33.04;25.75;98558.50;5073484;28;20103;-77
2022/07/08 04:54:03;;;;;;;1.00;0.90;;;;;;;33.05;25.43;98562.88;5078551;28;20086;-78
2022/07/08 04:56:29;;;;;;;1.05;0.80;;;;;;;33.04;25.70;98571.91;5073210;28;20041;-78
2022/07/08 04:58:55;;;;;;;1.83;0.75;;;;;;;33.24;25.42;98570.03;5073030;28;20090;-77
2022/07/08 05:01:21;;;;;;;0.77;0.70;;;;;;;33.42;25.54;98571.97;5072978;28;20072;-78
2022/07/08 05:03:47;;;;;;;1.48;0.80;;;;;;;33.60;25.12;98576.75;5073085;28;20040;-77
2022/07/08 05:06:13;;;;;;;0.80;0.80;;;;;;;33.71;25.03;98572.06;5073229;28;20074;-78
2022/07/08 05:08:39;;;;;;;2.90;0.90;;;;;;;33.83;25.17;98567.34;5088696;28;20416;-78
2022/07/08 05:11:05;;;;;;;2.33;0.77;;;;;;;33.86;24.89;98574.94;5074157;28;20555;-78
2022/07/08 05:13:31;;;;;;;1.05;0.82;;;;;;;33.54;24.98;98576.63;5073001;28;20043;-77
2022/07/08 05:15:58;;;;;;;0.90;0.70;;;;;;;33.28;25.60;98584.88;5072696;28;20028;-78
2022/07/08 05:18:24;;;;;;;1.65;1.10;;;;;;;33.25;25.45;98591.56;5073085;28;20082;-78
2022/07/08 05:20:50;;;;;;;0.93;0.80;;;;;;;33.22;25.28;98592.50;5073288;28;20075;-78
2022/07/08 05:23:17;;;;;;;2.35;1.00;;;;;;;33.00;25.62;98585.53;5072942;28;20028;-78
2022/07/08 05:25:43;;;;;;;2.45;1.25;;;;;;;33.35;25.79;98584.50;5072817;28;20056;-78
2022/07/08 05:28:09;;;;;;;1.52;1.00;;;;;;;33.58;25.27;98590.69;5080971;28;20044;-78
2022/07/08 05:30:35;;;;;;;1.90;1.67;;;;;;;33.66;25.26;98591.88;5092814;28;20046;-78
2022/07/08 05:33:01;;;;;;;1.25;0.88;;;;;;;33.74;25.01;98585.34;5093059;28;20046;-78
2022/07/08 05:35:27;;;;;;;1.38;0.80;;;;;;;33.71;25.07;98591.19;5087648;28;20082;-78
2022/07/08 05:37:54;;;;;;;0.80;0.80;;;;;;;33.56;25.56;98596.84;5072728;28;20033;-78
2022/07/08 05:40:20;;;;;;;2.08;0.90;;;;;;;33.83;25.60;98588.09;5072799;28;20029;-78
2022/07/08 05:42:46;;;;;;;1.88;1.02;;;;;;;34.03;24.95;98588.22;5072869;28;20056;-78
2022/07/08 05:45:13;;;;;;;2.10;0.90;;;;;;;34.26;24.74;98588.63;5056233;28;20036;-78
2022/07/08 05:47:39;;;;;;;1.00;0.90;;;;;;;33.90;25.49;98587.72;5076733;28;20039;-77
2022/07/08 05:50:06;;;;;;;0.80;0.80;;;;;;;33.97;24.74;98595.88;5076660;28;20037;-78
2022/07/08 05:52:32;;;;;;;1.30;0.90;;;;;;;33.85;24.81;98591.22;5076530;28;20029;-78
2022/07/08 05:54:58;;;;;;;0.80;0.80;;;;;;;33.53;25.22;98597.84;5076493;28;20101;-78
2022/07/08 05:57:24;;;;;;;1.10;0.80;;;;;;;33.14;26.00;98599.06;5076338;28;20078;-78
2022/07/08 05:59:51;;;;;;;1.67;1.10;;;;;;;33.01;25.74;98590.75;5076131;28;20090;-78
2022/07/08 06:02:18;;;;;;;2.15;0.90;;;;;;;33.50;26.15;98592.28;5085919;28;20089;-78
2022/07/08 06:04:44;;;;;;;1.50;1.00;;;;;;;33.68;26.29;98600.75;5096676;28;20034;-78
2022/07/08 06:07:10;;;;;;;3.95;1.02;;;;;;;34.01;24.77;98592.81;5096636;28;20043;-78
2022/07/08 06:09:37;;;;;;;0.75;0.75;;;;;;;34.34;24.50;98598.34;5096560;28;20035;-78
2022/07/08 06:12:04;;;;;;;1.42;1.00;;;;;;;34.49;25.13;98596.28;5096774;28;20031;-78
2022/07/08 06:14:30;;;;;;;2.47;0.90;;;;;;;34.77;24.74;98596.75;5096438;28;20032;-78
2022/07/08 06:16:56;;;;;;;1.35;0.80;;;;;;;35.08;24.00;98591.28;5096409;28;20031;-78
2022/07/08 06:19:25;;;;;;;1.10;0.63;;;;;;;35.33;24.31;98597.09;5085440;28;20025;-78
2022/07/08 06:21:51;;;;;;;1.05;0.70;;;;;;;35.50;23.61;98605.09;5058136;28;20032;-78
2022/07/08 06:24:18;;;;;;;0.68;0.50;;;;;;;35.57;23.51;98602.59;5076025;28;20115;-78
2022/07/08 06:26:44;;;;;;;2.00;1.08;;;;;;;35.56;23.00;98603.09;5075895;28;20111;-78
2022/07/08 06:29:11;;;;;;;0.73;0.73;;;;;;;35.32;23.96;98606.13;5075945;28;20115;-78
2022/07/08 06:31:38;;;;;;;4.13;1.15;;;;;;;35.30;24.38;98614.41;5075919;28;20090;-78
2022/07/08 06:34:05;;;;;;;1.10;0.73;;;;;;;34.94;24.16;98609.22;5079204;28;20064;-78
2022/07/08 06:36:34;;;;;;;0.70;0.70;;;;;;;34.93;24.22;98616.19;5083529;28;20400;-78
2022/07/08 06:39:00;;;;;;;1.92;0.90;;;;;;;34.63;24.19;98616.28;5075986;28;20449;-78
2022/07/08 06:41:26;;;;;;;1.05;0.70;;;;;;;34.90;24.61;98620.81;5075760;28;20358;-78
2022/07/08 06:43:53;;;;;;;0.85;0.80;;;;;;;34.80;24.55;98627.16;5093234;28;20051;-78
2022/07/08 06:46:19;;;;;;;2.78;1.27;;;;;;;34.14;24.53;98627.56;5095824;28;20023;-78
2022/07/08 06:48:45;;;;;;;0.95;0.80;;;;;;;34.45;24.80;98627.84;5077662;28;20124;-78
2022/07/08 06:51:11;;;;;;;1.20;1.10;;;;;;;34.61;24.29;98621.66;5095790;28;20028;-78
2022/07/08 06:56:23;;;;;;;1.27;0.90;;;;;;;35.29;24.19;98627.91;5075186;28;20048;-78
2022/07/08 06:58:50;;;;;;;1.30;1.02;;;;;;;35.39;23.64;98628.56;5074743;28;20052;-78
2022/07/08 07:01:16;;;;;;;1.92;0.80;;;;;;;35.21;24.20;98628.84;5075380;28;20074;-78
2022/07/08 07:03:42;;;;;;;2.90;0.90;;;;;;;35.46;23.69;98630.19;5075354;28;20469;-78
2022/07/08 07:06:08;;;;;;;1.50;0.90;;;;;;;35.26;23.99;98631.00;5075273;28;20024;-79
2022/07/08 07:08:35;;;;;;;1.60;1.08;;;;;;;35.04;23.99;98624.94;5075557;28;20044;-78
2022/07/08 07:11:01;;;;;;;1.10;0.90;;;;;;;35.19;24.30;98631.41;5090517;28;20040;-78
2022/07/08 07:13:27;;;;;;;4.22;0.70;;;;;;;35.34;23.95;98627.19;5095199;28;20118;-78
2022/07/08 07:15:53;;;;;;;1.50;0.85;;;;;;;35.12;23.95;98629.75;5077381;28;20036;-78
2022/07/08 07:18:19;;;;;;;1.08;0.90;;;;;;;34.42;24.39;98630.91;5095326;28;20031;-78
2022/07/08 07:20:45;;;;;;;1.60;1.15;;;;;;;33.73;25.70;98637.88;5095414;28;20032;-78
2022/07/08 07:23:11;;;;;;;1.35;1.25;;;;;;;33.73;25.66;98635.03;5095164;28;20055;-78
2022/07/08 07:25:38;;;;;;;2.03;1.60;;;;;;;33.60;25.81;98645.09;5094874;28;20032;-78
2022/07/08 07:28:04;;;;;;;1.90;1.35;;;;;;;33.46;25.43;98640.91;5078253;28;20037;-78
2022/07/08 07:30:30;;;;;;;2.05;1.50;;;;;;;33.91;25.04;98648.34;5074858;28;20115;-78
2022/07/08 07:32:56;;;;;;;1.83;1.27;;;;;;;34.20;24.78;98642.69;5088005;28;20075;-78
2022/07/08 07:35:22;;;;;;;2.10;1.20;;;;;;;34.78;24.22;98641.91;5081313;28;20037;-78
2022/07/08 07:37:49;;;;;;;1.27;1.00;;;;;;;35.04;23.24;98642.88;5073335;28;20036;-78
2022/07/08 07:40:15;;;;;;;1.85;1.42;;;;;;;34.69;23.51;98651.38;5074353;28;20032;-78
2022/07/08 07:42:41;;;;;;;2.78;1.52;;;;;;;34.88;23.42;98654.00;5074527;28;20086;-79
2022/07/08 07:45:08;;;;;;;2.38;1.10;;;;;;;34.87;23.55;98661.00;5091157;28;20035;-78
2022/07/08 07:47:34;;;;;;;3.05;1.20;;;;;;;35.07;23.93;98658.22;5094918;28;20027;-79
2022/07/08 07:50:01;;;;;;;1.42;0.80;;;;;;;35.84;23.45;98656.44;5094604;28;20039;-80
2022/07/08 07:52:27;;;;;;;1.63;1.00;;;;;;;36.25;22.69;98659.25;5094809;28;20050;-79
2022/07/08 07:54:53;;;;;;;1.05;0.80;;;;;;;36.46;22.32;98655.06;5094305;28;20039;-79
2022/07/08 07:57:19;;;;;;;1.27;1.00;;;;;;;35.76;22.95;98661.00;5094396;28;20035;-79
2022/07/08 07:59:45;;;;;;;1.00;0.90;;;;;;;35.62;23.17;98661.88;5094251;28;20086;-79
2022/07/08 08:02:12;;;;;;;2.13;0.82;;;;;;;36.14;22.96;98657.06;5076794;28;20123;-80
2022/07/08 08:04:38;;;;;;;0.80;0.80;;;;;;;36.46;22.95;98653.00;5073990;28;20043;-80
2022/07/08 08:07:04;;;;;;;0.77;0.77;;;;;;;36.71;22.58;98654.28;5074063;28;20044;-80
2022/07/08 08:09:30;;;;;;;1.20;0.70;;;;;;;36.77;22.27;98654.28;5055781;28;20504;-80
2022/07/08 08:11:56;;;;;;;2.63;0.90;;;;;;;37.10;22.30;98657.44;5073891;28;20043;-80
2022/07/08 08:14:22;;;;;;;1.05;0.80;;;;;;;37.15;22.72;98654.63;5073891;28;20115;-80
2022/07/08 08:16:48;;;;;;;1.00;0.75;;;;;;;36.73;21.89;98651.69;5073845;28;20024;-79
2022/07/08 08:19:15;;;;;;;1.98;0.80;;;;;;;36.63;22.51;98656.81;5072939;28;20085;-80
2022/07/08 08:21:41;;;;;;;1.80;0.95;;;;;;;36.52;22.10;98665.28;5094044;28;20129;-80
2022/07/08 08:24:07;;;;;;;0.90;0.90;;;;;;;36.88;21.95;98663.75;5093629;28;20039;-80
2022/07/08 08:26:33;;;;;;;0.85;0.70;;;;;;;36.81;22.76;98664.22;5094025;28;20070;-80
2022/07/08 08:28:59;;;;;;;1.13;0.80;;;;;;;37.37;22.36;98662.56;5093871;28;20152;-80
2022/07/08 08:31:26;;;;;;;1.20;0.70;;;;;;;37.37;21.90;98662.56;5084037;28;20464;-80
2022/07/08 08:33:52;;;;;;;4.85;1.00;;;;;;;37.22;21.96;98665.59;5075524;28;20032;-80
2022/07/08 08:36:18;;;;;;;1.27;1.13;;;;;;;36.84;22.18;98662.41;5083943;28;20376;-80
2022/07/08 08:38:46;;;;;;;0.70;0.70;;;;;;;36.64;21.77;98663.31;5093539;28;20050;-80
2022/07/08 08:41:13;;;;;;;0.95;0.70;;;;;;;37.12;21.64;98661.38;5094122;28;20027;-79
2022/07/08 08:43:39;;;;;;;3.13;1.08;;;;;;;36.86;21.28;98651.25;5093743;28;20039;-79
2022/07/08 08:46:06;;;;;;;2.28;0.98;;;;;;;36.88;20.74;98655.16;5093811;28;20054;-80
2022/07/08 08:48:39;;;;;;;6.13;1.10;;;;;;;36.49;21.64;98662.63;5093921;28;20024;-79
2022/07/08 08:51:08;;;;;;;1.23;0.60;;;;;;;37.10;21.71;98655.38;5092912;28;20032;-80
2022/07/08 08:53:45;;;;;;;1.45;1.00;;;;;;;37.37;19.89;98666.22;5073550;28;20029;-79
2022/07/08 08:56:13;;;;;;;1.40;0.80;;;;;;;37.20;20.73;98658.81;5073407;28;20044;-80
2022/07/08 08:58:48;;;;;;;1.70;0.88;;;;;;;37.38;19.69;98659.22;5073213;28;20041;-80
2022/07/08 09:01:19;;;;;;;2.47;1.27;;;;;;;37.36;21.29;98661.78;5072993;28;20028;-80
2022/07/08 09:03:45;;;;;;;9.27;1.00;;;;;;;37.23;20.75;98654.91;5077784;28;20028;-79
2022/07/08 09:06:12;;;;;;;0.75;0.75;;;;;;;37.35;21.07;98663.06;5093700;28;20111;-80
2022/07/08 09:08:39;;;;;;;2.90;1.00;;;;;;;37.49;21.25;98660.56;5084902;28;20125;-80
2022/07/08 09:11:06;;;;;;;0.85;0.70;;;;;;;37.24;20.63;98659.34;5073372;28;20175;-80
2022/07/08 09:13:33;;;;;;;0.80;0.60;;;;;;;37.22;20.39;98659.88;5073070;28;20125;-80
2022/07/08 09:15:59;;;;;;;0.77;0.60;;;;;;;37.38;20.70;98656.34;5072962;28;20036;-80
2022/07/08 09:18:38;;;;;;;1.35;0.60;;;;;;;37.95;21.00;98655.34;5073009;28;20164;-80
2022/07/08 09:21:04;;;;;;;4.53;1.40;;;;;;;38.44;20.37;98651.78;5077050;28;20053;-80
2022/07/08 09:23:33;;;;;;;2.42;0.70;;;;;;;38.78;20.07;98660.47;5079684;28;20025;-80
2022/07/08 09:26:03;;;;;;;0.93;0.68;;;;;;;38.74;18.93;98655.00;5080668;28;20040;-81
2022/07/08 09:28:33;;;;;;;2.38;1.15;;;;;;;38.81;20.05;98647.94;5061811;28;20033;-80
2022/07/08 09:31:01;;;;;;;;;;;;;;;38.86;19.62;98661.50;5097094;28;20117;-80
2022/07/08 09:33:28;;;;;;;0.65;0.50;;;;;;;38.94;20.59;98654.72;5099524;28;19998;-80
2022/07/08 09:35:56;;;;;;;0.85;0.60;;;;;;;39.19;19.71;98647.91;5094634;28;20041;-80
2022/07/08 09:38:23;;;;;;;0.68;0.68;;;;;;;39.14;20.18;98645.78;5089499;28;20443;-80
2022/07/08 09:41:02;;;;;;;1.95;0.57;;;;;;;39.23;20.56;98645.53;5079511;28;20419;-80
2022/07/08 09:43:29;;;;;;;0.60;0.60;;;;;;;39.41;20.04;98646.28;5090528;28;20115;-80
2022/07/08 09:46:05;;;;;;;1.17;0.52;;;;;;;39.43;19.99;98652.28;5099670;28;20043;-80
2022/07/08 09:48:31;;;;;;;0.50;0.50;;;;;;;39.38;19.40;98651.00;5099592;28;20034;-81
2022/07/08 09:51:00;;;;;;;3.65;0.60;;;;;;;39.36;19.68;98651.53;5099499;28;20103;-78
2022/07/08 09:53:28;;;;;;;0.77;0.60;;;;;;;39.07;19.68;98648.44;5099633;28;20056;-79
2022/07/08 09:55:56;;;;;;;0.80;0.60;;;;;;;37.98;20.98;98643.59;5099496;28;20028;-79
2022/07/08 09:58:25;;;;;;;1.80;0.70;;;;;;;37.44;20.70;98642.03;5094672;28;20045;-78
2022/07/08 10:00:53;;;;;;;1.25;0.80;;;;;;;37.03;20.72;98644.38;5064996;28;20035;-78
2022/07/08 10:03:21;;;;;;;3.53;1.00;;;;;;;36.72;21.37;98647.22;5059067;28;20028;-78
2022/07/08 10:05:47;;;;;;;1.75;0.80;;;;;;;36.72;21.73;98635.78;5077256;28;20032;-78
2022/07/08 10:08:15;;;;;;;2.33;0.90;;;;;;;37.03;21.55;98641.53;5079256;28;20536;-78
2022/07/08 10:10:45;;;;;;;1.05;0.90;;;;;;;37.21;21.37;98646.06;5079484;28;20079;-78
2022/07/08 10:13:13;;;;;;;1.17;0.70;;;;;;;37.30;21.24;98640.91;5079222;28;20396;-78
2022/07/08 10:15:40;;;;;;;0.57;0.57;;;;;;;36.88;21.89;98649.44;5079021;28;20037;-78
2022/07/08 10:18:15;;;;;;;1.63;0.90;;;;;;;37.17;20.80;98651.25;5077469;28;20028;-78
2022/07/08 10:20:45;;;;;;;3.92;1.42;;;;;;;37.38;21.13;98655.56;5078948;28;20090;-78
2022/07/08 10:23:42;;;;;;;0.93;0.90;;;;;;;36.86;20.78;98648.38;5079132;28;20037;-78
2022/07/08 10:26:12;;;;;;;2.70;1.33;;;;;;;37.08;20.19;98652.22;5094622;28;20033;-78
2022/07/08 10:28:41;;;;;;;0.93;0.82;;;;;;;37.19;20.48;98651.50;5072019;28;20037;-78
2022/07/08 10:31:21;;;;;;;0.60;0.60;;;;;;;37.51;20.82;98649.41;5058484;28;20060;-78
2022/07/08 10:33:48;;;;;;;1.65;0.70;;;;;;;37.74;20.54;98645.31;5056585;28;20542;-78
2022/07/08 10:36:19;;;;;;;1.00;0.60;;;;;;;37.37;21.76;98643.31;5055763;28;20405;-78
2022/07/08 10:38:45;;;;;;;1.33;0.80;;;;;;;36.48;22.49;98641.06;5055846;28;20111;-78
2022/07/08 10:41:13;;;;;;;4.70;1.20;;;;;;;36.29;22.19;98648.38;5055820;28;20033;-78
2022/07/08 10:43:51;;;;;;;1.55;1.02;;;;;;;35.68;23.43;98656.25;5056009;28;20033;-78
2022/07/08 10:46:18;;;;;;;3.58;1.20;;;;;;;34.65;24.84;98662.22;5055546;28;20492;-78
2022/07/08 10:48:51;;;;;;;4.50;1.10;;;;;;;32.80;27.63;98665.75;5055214;28;20508;-78
2022/07/08 10:51:20;;;;;;;1.15;1.00;;;;;;;32.23;29.20;98669.66;5080319;28;20385;-77
2022/07/08 10:53:52;;;;;;;1.70;1.10;;;;;;;32.97;27.89;98681.16;5075694;28;20028;-77
2022/07/08 10:56:49;;;;;;;1.25;1.00;;;;;;;33.38;27.42;98679.53;5074859;28;20123;-77
2022/07/08 10:59:23;;;;;;;1.00;0.88;;;;;;;33.51;27.10;98677.25;5066960;28;20091;-77
2022/07/08 11:02:03;;;;;;;0.80;0.80;;;;;;;33.88;27.22;98669.25;5075326;28;20404;-76
2022/07/08 11:04:53;;;;;;;1.23;0.90;;;;;;;34.72;27.05;98666.72;5074865;28;20035;-77
2022/07/08 11:07:29;;;;;;;1.40;0.60;;;;;;;35.29;26.54;98655.66;5076322;28;20055;-76
2022/07/08 11:10:10;;;;;;;0.77;0.60;;;;;;;35.56;25.97;98666.75;5075410;28;20033;-77
2022/07/08 11:12:42;;;;;;;1.75;0.50;;;;;;;36.29;25.46;98660.63;5075240;28;20029;-77
2022/07/08 11:15:19;;;;;;;3.63;0.50;;;;;;;37.21;25.34;98643.19;5074998;28;20063;-77
2022/07/08 11:17:46;;;;;;;0.40;0.40;;;;;;;37.57;23.51;98645.25;5074712;28;20039;-77
2022/07/08 11:20:20;;;;;;;0.57;0.40;;;;;;;36.92;23.34;98647.19;5073705;28;20502;-77
2022/07/08 11:22:47;;;;;;;0.55;0.40;;;;;;;37.53;23.75;98653.28;5074766;28;20029;-77
2022/07/08 11:25:17;;;;;;;1.27;0.43;;;;;;;38.19;24.44;98646.25;5076157;28;20060;-76
2022/07/08 11:27:43;;;;;;;0.70;0.50;;;;;;;38.54;23.70;98643.72;5085518;28;20379;-76
2022/07/08 11:30:14;;;;;;;1.30;0.52;;;;;;;39.11;22.90;98640.34;5095019;28;20036;-79
2022/07/08 11:32:47;;;;;;;0.50;0.50;;;;;;;38.67;22.15;98641.13;5076882;28;20092;-78
2022/07/08 11:35:13;;;;;;;0.82;0.32;;;;;;;38.88;22.16;98641.66;5090434;28;20034;-79
2022/07/08 11:37:44;;;;;;;0.68;0.52;;;;;;;38.93;22.14;98638.00;5075617;28;20040;-79
2022/07/08 11:40:12;;;;;;;2.70;0.40;;;;;;;39.05;20.65;98631.72;5056651;28;20016;-79